Mehmet Bey — 9HUD6 — position and weather

sailwx.info

Track history (hours):
 
Tides and Currents Weather Stations Pressure Air Temp Water Temp Dewpoint Dewpoint Depression Visibility Wind Speed Wind Dir Waves Ship Positions

Mehmet Bey

Last reported at 2014-Sep-14 05:32 UTC. Time now 2014-Sep-17 23:42 UTC.
Position N 41°01' E 028°60'.

Length 131 m; draft 5.1 m.

Type: Cargo ship. MMSI: 248864000.

Date/timePositionNaut miles runAvg speedWind from/ knotsBaromVisibWave heightAir tempDewpointWater temp
2014-Sep-14 05:32N 41°01' E 028°60'7 6.4
2014-Sep-14 04:30N 40°55' E 028°58'8 7.8
2014-Sep-14 03:30N 40°48' E 028°53'4 4.6
2014-Sep-14 02:33N 40°44' E 028°50'2 1.8
2014-Sep-14 01:31N 40°45' E 028°52'4 1.0
2014-Sep-13 21:33N 40°49' E 028°54'9 8.2
2014-Sep-13 20:30N 40°49' E 028°43'159 7.4
2014-Sep-12 23:07N 39°23' E 025°47'15 9.4
2014-Sep-12 21:32N 39°08' E 025°46'9 9.1
2014-Sep-12 20:34N 39°03' E 025°55'  
2014-Sep-04 15:18N 38°59' E 026°00'  
Track history (hours):
 
Tides and Currents Weather Stations Pressure Air Temp Water Temp Dewpoint Dewpoint Depression Visibility Wind Speed Wind Dir Waves Ship Positions

Mehmet Bey

Last reported at 2014-Sep-14 05:32 UTC. Time now 2014-Sep-17 23:42 UTC.
Position N 41°01' E 028°60'.

Length 131 m; draft 5.1 m.

Type: Cargo ship. MMSI: 248864000.

Date/timePositionNaut miles runAvg speedWind from/ knotsBaromVisibWave heightAir tempDewpointWater temp
2014-Sep-14 05:32N 41°01' E 028°60'7 6.4
2014-Sep-14 04:30N 40°55' E 028°58'8 7.8
2014-Sep-14 03:30N 40°48' E 028°53'4 4.6
2014-Sep-14 02:33N 40°44' E 028°50'2 1.8
2014-Sep-14 01:31N 40°45' E 028°52'4 1.0
2014-Sep-13 21:33N 40°49' E 028°54'9 8.2
2014-Sep-13 20:30N 40°49' E 028°43'159 7.4
2014-Sep-12 23:07N 39°23' E 025°47'15 9.4
2014-Sep-12 21:32N 39°08' E 025°46'9 9.1
2014-Sep-12 20:34N 39°03' E 025°55'  
2014-Sep-04 15:18N 38°59' E 026°00'  

Dump ship's entire track history